sensor_id;sensor_type;location;lat;lon;timestamp;temperature;humidity
44705;DHT22;30431;48.520;9.046;2024-03-02T00:01:52;4.20;99.90
44705;DHT22;30431;48.520;9.046;2024-03-02T00:04:22;4.30;99.90
44705;DHT22;30431;48.520;9.046;2024-03-02T00:06:54;4.30;99.90
44705;DHT22;30431;48.520;9.046;2024-03-02T00:09:23;4.30;99.90
44705;DHT22;30431;48.520;9.046;2024-03-02T00:11:51;4.20;99.90
44705;DHT22;30431;48.520;9.046;2024-03-02T00:14:18;4.20;99.90
44705;DHT22;30431;48.520;9.046;2024-03-02T00:16:45;4.20;99.90
44705;DHT22;30431;48.520;9.046;2024-03-02T00:19:12;4.10;99.90
44705;DHT22;30431;48.520;9.046;2024-03-02T00:21:44;4.10;99.90
44705;DHT22;30431;48.520;9.046;2024-03-02T00:24:21;4.10;99.90
44705;DHT22;30431;48.520;9.046;2024-03-02T00:26:48;4.10;99.90
44705;DHT22;30431;48.520;9.046;2024-03-02T00:29:16;4.10;99.90
44705;DHT22;30431;48.520;9.046;2024-03-02T00:31:43;4.10;99.90
44705;DHT22;30431;48.520;9.046;2024-03-02T00:34:14;4.20;99.90
44705;DHT22;30431;48.520;9.046;2024-03-02T00:36:47;4.20;99.90
44705;DHT22;30431;48.520;9.046;2024-03-02T00:39:18;4.30;99.90
44705;DHT22;30431;48.520;9.046;2024-03-02T00:41:49;4.30;99.90
44705;DHT22;30431;48.520;9.046;2024-03-02T00:44:23;4.20;99.90
44705;DHT22;30431;48.520;9.046;2024-03-02T00:46:54;4.20;99.90
44705;DHT22;30431;48.520;9.046;2024-03-02T00:51:53;4.20;99.90
44705;DHT22;30431;48.520;9.046;2024-03-02T00:54:30;4.30;99.90
44705;DHT22;30431;48.520;9.046;2024-03-02T00:56:58;4.40;99.90
44705;DHT22;30431;48.520;9.046;2024-03-02T00:59:30;4.50;99.90
44705;DHT22;30431;48.520;9.046;2024-03-02T01:01:58;4.50;99.90
44705;DHT22;30431;48.520;9.046;2024-03-02T01:04:25;4.40;99.90
44705;DHT22;30431;48.520;9.046;2024-03-02T01:06:52;4.30;99.90
44705;DHT22;30431;48.520;9.046;2024-03-02T01:09:19;4.20;99.90
44705;DHT22;30431;48.520;9.046;2024-03-02T01:11:48;4.20;99.90
44705;DHT22;30431;48.520;9.046;2024-03-02T01:14:15;4.10;99.90
44705;DHT22;30431;48.520;9.046;2024-03-02T01:16:42;4.10;99.90
44705;DHT22;30431;48.520;9.046;2024-03-02T01:19:12;4.00;99.90
44705;DHT22;30431;48.520;9.046;2024-03-02T01:21:41;4.00;99.90
44705;DHT22;30431;48.520;9.046;2024-03-02T01:24:11;4.00;99.90
44705;DHT22;30431;48.520;9.046;2024-03-02T01:26:37;3.90;99.90
44705;DHT22;30431;48.520;9.046;2024-03-02T01:29:05;3.80;99.90
44705;DHT22;30431;48.520;9.046;2024-03-02T01:31:34;3.80;99.90
44705;DHT22;30431;48.520;9.046;2024-03-02T01:34:01;3.70;99.90
44705;DHT22;30431;48.520;9.046;2024-03-02T01:36:28;3.70;99.90
44705;DHT22;30431;48.520;9.046;2024-03-02T01:38:55;3.60;99.90
44705;DHT22;30431;48.520;9.046;2024-03-02T01:41:24;3.50;99.90
44705;DHT22;30431;48.520;9.046;2024-03-02T01:43:51;3.50;99.90
44705;DHT22;30431;48.520;9.046;2024-03-02T01:46:18;3.40;99.90
44705;DHT22;30431;48.520;9.046;2024-03-02T01:48:45;3.40;99.90
44705;DHT22;30431;48.520;9.046;2024-03-02T01:51:17;3.30;99.90
44705;DHT22;30431;48.520;9.046;2024-03-02T01:53:44;3.30;99.90
44705;DHT22;30431;48.520;9.046;2024-03-02T01:56:11;3.30;99.90
44705;DHT22;30431;48.520;9.046;2024-03-02T01:58:38;3.20;99.90
44705;DHT22;30431;48.520;9.046;2024-03-02T02:01:05;3.10;99.90
44705;DHT22;30431;48.520;9.046;2024-03-02T02:03:32;3.10;99.90
44705;DHT22;30431;48.520;9.046;2024-03-02T02:06:02;3.00;99.90
44705;DHT22;30431;48.520;9.046;2024-03-02T02:08:31;3.10;99.90
44705;DHT22;30431;48.520;9.046;2024-03-02T02:11:00;3.10;99.90
44705;DHT22;30431;48.520;9.046;2024-03-02T02:13:30;3.00;99.90
44705;DHT22;30431;48.520;9.046;2024-03-02T02:16:05;2.90;99.90
44705;DHT22;30431;48.520;9.046;2024-03-02T02:18:32;2.90;99.90
44705;DHT22;30431;48.520;9.046;2024-03-02T02:20:59;2.80;99.90
44705;DHT22;30431;48.520;9.046;2024-03-02T02:23:29;2.90;99.90
44705;DHT22;30431;48.520;9.046;2024-03-02T02:25:55;2.90;99.90
44705;DHT22;30431;48.520;9.046;2024-03-02T02:28:25;2.80;99.90
44705;DHT22;30431;48.520;9.046;2024-03-02T02:30:54;2.80;99.90
44705;DHT22;30431;48.520;9.046;2024-03-02T02:33:23;2.70;99.90
44705;DHT22;30431;48.520;9.046;2024-03-02T02:35:52;2.70;99.90
44705;DHT22;30431;48.520;9.046;2024-03-02T02:38:23;2.60;99.90
44705;DHT22;30431;48.520;9.046;2024-03-02T02:40:50;2.60;99.90
44705;DHT22;30431;48.520;9.046;2024-03-02T02:43:19;2.60;99.90
44705;DHT22;30431;48.520;9.046;2024-03-02T02:45:48;2.50;99.90
44705;DHT22;30431;48.520;9.046;2024-03-02T02:48:15;2.50;99.90
44705;DHT22;30431;48.520;9.046;2024-03-02T02:50:42;2.50;99.90
44705;DHT22;30431;48.520;9.046;2024-03-02T02:53:09;2.50;99.90
44705;DHT22;30431;48.520;9.046;2024-03-02T02:55:39;2.50;99.90
44705;DHT22;30431;48.520;9.046;2024-03-02T02:58:10;2.40;99.90
44705;DHT22;30431;48.520;9.046;2024-03-02T03:00:39;2.40;99.90
44705;DHT22;30431;48.520;9.046;2024-03-02T03:03:06;2.30;99.90
44705;DHT22;30431;48.520;9.046;2024-03-02T03:05:36;2.30;99.90
44705;DHT22;30431;48.520;9.046;2024-03-02T03:08:05;2.30;99.90
44705;DHT22;30431;48.520;9.046;2024-03-02T03:10:32;2.30;99.90
44705;DHT22;30431;48.520;9.046;2024-03-02T03:13:02;2.20;99.90
44705;DHT22;30431;48.520;9.046;2024-03-02T03:15:30;2.30;99.90
44705;DHT22;30431;48.520;9.046;2024-03-02T03:18:02;2.20;99.90
44705;DHT22;30431;48.520;9.046;2024-03-02T03:20:31;2.20;99.90
44705;DHT22;30431;48.520;9.046;2024-03-02T03:23:00;2.20;99.90
44705;DHT22;30431;48.520;9.046;2024-03-02T03:25:27;2.10;99.90
44705;DHT22;30431;48.520;9.046;2024-03-02T03:27:54;2.10;99.90
44705;DHT22;30431;48.520;9.046;2024-03-02T03:30:21;2.10;99.90
44705;DHT22;30431;48.520;9.046;2024-03-02T03:32:48;2.00;99.90
44705;DHT22;30431;48.520;9.046;2024-03-02T03:35:17;2.00;99.90
44705;DHT22;30431;48.520;9.046;2024-03-02T03:37:45;1.90;99.90
44705;DHT22;30431;48.520;9.046;2024-03-02T03:40:14;1.90;99.90
44705;DHT22;30431;48.520;9.046;2024-03-02T03:42:41;1.90;99.90
44705;DHT22;30431;48.520;9.046;2024-03-02T03:45:08;2.00;99.90
44705;DHT22;30431;48.520;9.046;2024-03-02T03:47:40;2.00;99.90
44705;DHT22;30431;48.520;9.046;2024-03-02T03:50:07;2.00;99.90
44705;DHT22;30431;48.520;9.046;2024-03-02T03:52:36;2.00;99.90
44705;DHT22;30431;48.520;9.046;2024-03-02T03:55:08;2.00;99.90
44705;DHT22;30431;48.520;9.046;2024-03-02T03:57:38;2.00;99.90
44705;DHT22;30431;48.520;9.046;2024-03-02T04:00:05;1.90;99.90
44705;DHT22;30431;48.520;9.046;2024-03-02T04:02:39;1.90;99.90
44705;DHT22;30431;48.520;9.046;2024-03-02T04:05:07;1.80;99.90
44705;DHT22;30431;48.520;9.046;2024-03-02T04:07:38;1.70;99.90
44705;DHT22;30431;48.520;9.046;2024-03-02T04:10:11;1.80;99.90
44705;DHT22;30431;48.520;9.046;2024-03-02T04:12:42;1.80;99.90
44705;DHT22;30431;48.520;9.046;2024-03-02T04:15:11;1.80;99.90
44705;DHT22;30431;48.520;9.046;2024-03-02T04:17:40;1.80;99.90
44705;DHT22;30431;48.520;9.046;2024-03-02T04:20:07;1.90;99.90
44705;DHT22;30431;48.520;9.046;2024-03-02T04:22:34;2.00;99.90
44705;DHT22;30431;48.520;9.046;2024-03-02T04:25:02;2.00;99.90
44705;DHT22;30431;48.520;9.046;2024-03-02T04:27:33;2.00;99.90
44705;DHT22;30431;48.520;9.046;2024-03-02T04:30:01;2.10;99.90
44705;DHT22;30431;48.520;9.046;2024-03-02T04:32:28;2.20;99.90
44705;DHT22;30431;48.520;9.046;2024-03-02T04:34:55;2.30;99.90
44705;DHT22;30431;48.520;9.046;2024-03-02T04:37:22;2.30;99.90
44705;DHT22;30431;48.520;9.046;2024-03-02T04:39:49;2.30;99.90
44705;DHT22;30431;48.520;9.046;2024-03-02T04:42:16;2.30;99.90
44705;DHT22;30431;48.520;9.046;2024-03-02T04:44:42;2.30;99.90
44705;DHT22;30431;48.520;9.046;2024-03-02T04:47:15;2.40;99.90
44705;DHT22;30431;48.520;9.046;2024-03-02T04:49:43;2.50;99.90
44705;DHT22;30431;48.520;9.046;2024-03-02T04:52:13;2.50;99.90
44705;DHT22;30431;48.520;9.046;2024-03-02T04:54:43;2.40;99.90
44705;DHT22;30431;48.520;9.046;2024-03-02T04:57:30;2.40;99.90
44705;DHT22;30431;48.520;9.046;2024-03-02T04:59:59;2.40;99.90
44705;DHT22;30431;48.520;9.046;2024-03-02T05:02:27;2.40;99.90
44705;DHT22;30431;48.520;9.046;2024-03-02T05:04:53;2.40;99.90
44705;DHT22;30431;48.520;9.046;2024-03-02T05:07:23;2.30;99.90
44705;DHT22;30431;48.520;9.046;2024-03-02T05:09:50;2.20;99.90
44705;DHT22;30431;48.520;9.046;2024-03-02T05:12:16;2.20;99.90
44705;DHT22;30431;48.520;9.046;2024-03-02T05:14:46;2.00;99.90
44705;DHT22;30431;48.520;9.046;2024-03-02T05:17:15;1.80;99.90
44705;DHT22;30431;48.520;9.046;2024-03-02T05:19:42;1.70;99.90
44705;DHT22;30431;48.520;9.046;2024-03-02T05:22:13;1.60;99.90
44705;DHT22;30431;48.520;9.046;2024-03-02T05:24:43;1.80;99.90
44705;DHT22;30431;48.520;9.046;2024-03-02T05:27:10;1.90;99.90
44705;DHT22;30431;48.520;9.046;2024-03-02T05:29:39;1.90;99.90
44705;DHT22;30431;48.520;9.046;2024-03-02T05:32:11;2.00;99.90
44705;DHT22;30431;48.520;9.046;2024-03-02T05:34:38;2.10;99.90
44705;DHT22;30431;48.520;9.046;2024-03-02T05:37:05;2.20;99.90
44705;DHT22;30431;48.520;9.046;2024-03-02T05:39:34;2.20;99.90
44705;DHT22;30431;48.520;9.046;2024-03-02T05:42:01;2.20;99.90
44705;DHT22;30431;48.520;9.046;2024-03-02T05:44:28;2.20;99.90
44705;DHT22;30431;48.520;9.046;2024-03-02T05:46:55;2.10;99.90
44705;DHT22;30431;48.520;9.046;2024-03-02T05:49:22;1.90;99.90
44705;DHT22;30431;48.520;9.046;2024-03-02T05:51:52;1.80;99.90
44705;DHT22;30431;48.520;9.046;2024-03-02T05:54:19;1.80;99.90
44705;DHT22;30431;48.520;9.046;2024-03-02T05:56:46;1.80;99.90
44705;DHT22;30431;48.520;9.046;2024-03-02T05:59:13;1.80;99.90
44705;DHT22;30431;48.520;9.046;2024-03-02T06:01:44;1.80;99.90
44705;DHT22;30431;48.520;9.046;2024-03-02T06:04:14;1.80;99.90
44705;DHT22;30431;48.520;9.046;2024-03-02T06:06:41;1.70;99.90
44705;DHT22;30431;48.520;9.046;2024-03-02T06:09:08;1.80;99.90
44705;DHT22;30431;48.520;9.046;2024-03-02T06:11:38;1.60;99.90
44705;DHT22;30431;48.520;9.046;2024-03-02T06:14:06;1.50;99.90
44705;DHT22;30431;48.520;9.046;2024-03-02T06:16:34;1.60;99.90
44705;DHT22;30431;48.520;9.046;2024-03-02T06:19:01;1.70;99.90
44705;DHT22;30431;48.520;9.046;2024-03-02T06:21:29;1.90;99.90
44705;DHT22;30431;48.520;9.046;2024-03-02T06:23:56;2.00;99.90
44705;DHT22;30431;48.520;9.046;2024-03-02T06:26:25;2.20;99.90
44705;DHT22;30431;48.520;9.046;2024-03-02T06:28:52;2.20;99.90
44705;DHT22;30431;48.520;9.046;2024-03-02T06:31:19;2.20;99.90
44705;DHT22;30431;48.520;9.046;2024-03-02T06:33:46;2.00;99.90
44705;DHT22;30431;48.520;9.046;2024-03-02T06:36:13;2.20;99.90
44705;DHT22;30431;48.520;9.046;2024-03-02T06:38:42;2.30;99.90
44705;DHT22;30431;48.520;9.046;2024-03-02T06:41:09;2.40;99.90
44705;DHT22;30431;48.520;9.046;2024-03-02T06:43:37;2.40;99.90
44705;DHT22;30431;48.520;9.046;2024-03-02T06:46:05;2.50;99.90
44705;DHT22;30431;48.520;9.046;2024-03-02T06:48:36;2.60;99.90
44705;DHT22;30431;48.520;9.046;2024-03-02T06:51:06;2.70;99.90
44705;DHT22;30431;48.520;9.046;2024-03-02T06:53:33;2.80;99.90
44705;DHT22;30431;48.520;9.046;2024-03-02T06:56:03;2.90;99.90
44705;DHT22;30431;48.520;9.046;2024-03-02T06:58:31;3.00;99.90
44705;DHT22;30431;48.520;9.046;2024-03-02T07:01:00;3.10;99.90
44705;DHT22;30431;48.520;9.046;2024-03-02T07:03:27;3.20;99.90
44705;DHT22;30431;48.520;9.046;2024-03-02T07:06:01;3.30;99.90
44705;DHT22;30431;48.520;9.046;2024-03-02T07:08:28;3.40;99.90
44705;DHT22;30431;48.520;9.046;2024-03-02T07:10:57;3.50;99.90
44705;DHT22;30431;48.520;9.046;2024-03-02T07:13:27;3.60;99.90
44705;DHT22;30431;48.520;9.046;2024-03-02T07:15:54;3.80;99.90
44705;DHT22;30431;48.520;9.046;2024-03-02T07:18:41;3.60;99.90
44705;DHT22;30431;48.520;9.046;2024-03-02T07:21:09;3.50;99.90
44705;DHT22;30431;48.520;9.046;2024-03-02T07:23:38;3.40;99.90
44705;DHT22;30431;48.520;9.046;2024-03-02T07:26:05;3.50;99.90
44705;DHT22;30431;48.520;9.046;2024-03-02T07:28:36;3.60;99.90
44705;DHT22;30431;48.520;9.046;2024-03-02T07:31:05;3.70;99.90
44705;DHT22;30431;48.520;9.046;2024-03-02T07:33:34;3.60;99.90
44705;DHT22;30431;48.520;9.046;2024-03-02T07:36:05;3.50;99.90
44705;DHT22;30431;48.520;9.046;2024-03-02T07:38:35;3.60;99.90
44705;DHT22;30431;48.520;9.046;2024-03-02T07:41:02;3.70;99.90
44705;DHT22;30431;48.520;9.046;2024-03-02T07:43:34;3.60;99.90
44705;DHT22;30431;48.520;9.046;2024-03-02T07:46:01;3.60;99.90
44705;DHT22;30431;48.520;9.046;2024-03-02T07:48:32;3.80;99.90
44705;DHT22;30431;48.520;9.046;2024-03-02T07:51:04;3.70;99.90
44705;DHT22;30431;48.520;9.046;2024-03-02T07:53:31;3.40;99.90
44705;DHT22;30431;48.520;9.046;2024-03-02T07:56:04;3.50;99.90
44705;DHT22;30431;48.520;9.046;2024-03-02T07:58:31;3.60;99.90
44705;DHT22;30431;48.520;9.046;2024-03-02T08:01:00;3.70;99.90
44705;DHT22;30431;48.520;9.046;2024-03-02T08:03:28;3.40;99.90
44705;DHT22;30431;48.520;9.046;2024-03-02T08:06:01;3.50;99.90
44705;DHT22;30431;48.520;9.046;2024-03-02T08:08:30;3.60;99.90
44705;DHT22;30431;48.520;9.046;2024-03-02T08:11:00;3.80;99.90
44705;DHT22;30431;48.520;9.046;2024-03-02T08:13:27;3.80;99.90
44705;DHT22;30431;48.520;9.046;2024-03-02T08:15:57;3.60;99.90
44705;DHT22;30431;48.520;9.046;2024-03-02T08:18:24;3.70;99.90
44705;DHT22;30431;48.520;9.046;2024-03-02T08:20:54;3.90;99.90
44705;DHT22;30431;48.520;9.046;2024-03-02T08:23:21;4.00;99.90
44705;DHT22;30431;48.520;9.046;2024-03-02T08:25:48;4.00;99.90
44705;DHT22;30431;48.520;9.046;2024-03-02T08:28:15;3.60;99.90
44705;DHT22;30431;48.520;9.046;2024-03-02T08:30:42;3.70;99.90
44705;DHT22;30431;48.520;9.046;2024-03-02T08:33:09;3.80;99.90
44705;DHT22;30431;48.520;9.046;2024-03-02T08:35:39;3.70;99.90
44705;DHT22;30431;48.520;9.046;2024-03-02T08:38:06;3.40;99.90
44705;DHT22;30431;48.520;9.046;2024-03-02T08:40:33;3.20;99.90
44705;DHT22;30431;48.520;9.046;2024-03-02T08:43:00;3.40;99.90
44705;DHT22;30431;48.520;9.046;2024-03-02T08:45:27;3.60;99.90
44705;DHT22;30431;48.520;9.046;2024-03-02T08:47:54;3.70;99.90
44705;DHT22;30431;48.520;9.046;2024-03-02T08:50:21;3.80;99.90
44705;DHT22;30431;48.520;9.046;2024-03-02T08:52:55;4.00;99.90
44705;DHT22;30431;48.520;9.046;2024-03-02T08:55:22;4.20;99.90
44705;DHT22;30431;48.520;9.046;2024-03-02T08:57:49;4.50;99.90
44705;DHT22;30431;48.520;9.046;2024-03-02T09:00:17;4.60;99.90
44705;DHT22;30431;48.520;9.046;2024-03-02T09:02:50;4.60;99.90
44705;DHT22;30431;48.520;9.046;2024-03-02T09:05:19;4.60;99.90
44705;DHT22;30431;48.520;9.046;2024-03-02T09:07:51;4.70;99.90
44705;DHT22;30431;48.520;9.046;2024-03-02T09:10:25;4.80;99.90
44705;DHT22;30431;48.520;9.046;2024-03-02T09:12:54;4.90;99.90
44705;DHT22;30431;48.520;9.046;2024-03-02T09:15:21;5.10;99.90
44705;DHT22;30431;48.520;9.046;2024-03-02T09:17:48;5.30;99.90
44705;DHT22;30431;48.520;9.046;2024-03-02T09:20:15;5.40;99.90
44705;DHT22;30431;48.520;9.046;2024-03-02T09:22:43;5.50;99.90
44705;DHT22;30431;48.520;9.046;2024-03-02T09:25:12;5.80;99.90
44705;DHT22;30431;48.520;9.046;2024-03-02T09:27:43;6.00;99.90
44705;DHT22;30431;48.520;9.046;2024-03-02T09:30:13;6.20;99.90
44705;DHT22;30431;48.520;9.046;2024-03-02T09:32:40;6.20;99.90
44705;DHT22;30431;48.520;9.046;2024-03-02T09:35:10;6.40;99.90
44705;DHT22;30431;48.520;9.046;2024-03-02T09:37:39;6.60;99.90
44705;DHT22;30431;48.520;9.046;2024-03-02T09:40:08;6.70;99.90
44705;DHT22;30431;48.520;9.046;2024-03-02T09:42:36;6.90;99.90
44705;DHT22;30431;48.520;9.046;2024-03-02T09:45:03;7.10;99.90
44705;DHT22;30431;48.520;9.046;2024-03-02T09:47:31;7.30;99.90
44705;DHT22;30431;48.520;9.046;2024-03-02T09:49:58;7.60;99.90
44705;DHT22;30431;48.520;9.046;2024-03-02T09:52:25;7.80;99.90
44705;DHT22;30431;48.520;9.046;2024-03-02T09:54:52;8.00;99.90
44705;DHT22;30431;48.520;9.046;2024-03-02T09:57:24;8.20;99.90
44705;DHT22;30431;48.520;9.046;2024-03-02T09:59:54;8.40;99.90
44705;DHT22;30431;48.520;9.046;2024-03-02T10:02:24;8.60;99.90
44705;DHT22;30431;48.520;9.046;2024-03-02T10:04:51;8.80;99.90
44705;DHT22;30431;48.520;9.046;2024-03-02T10:07:20;8.90;99.90
44705;DHT22;30431;48.520;9.046;2024-03-02T10:09:48;9.10;99.90
44705;DHT22;30431;48.520;9.046;2024-03-02T10:12:18;9.20;99.90
44705;DHT22;30431;48.520;9.046;2024-03-02T10:14:45;9.40;99.90
44705;DHT22;30431;48.520;9.046;2024-03-02T10:17:20;9.50;99.90
44705;DHT22;30431;48.520;9.046;2024-03-02T10:19:50;9.60;99.90
44705;DHT22;30431;48.520;9.046;2024-03-02T10:22:17;9.80;99.90
44705;DHT22;30431;48.520;9.046;2024-03-02T10:24:47;9.80;99.90
44705;DHT22;30431;48.520;9.046;2024-03-02T10:27:28;9.90;99.90
44705;DHT22;30431;48.520;9.046;2024-03-02T10:29:59;10.10;99.90
44705;DHT22;30431;48.520;9.046;2024-03-02T10:32:26;10.30;99.90
44705;DHT22;30431;48.520;9.046;2024-03-02T10:34:56;10.50;99.90
44705;DHT22;30431;48.520;9.046;2024-03-02T10:37:23;10.60;99.90
44705;DHT22;30431;48.520;9.046;2024-03-02T10:39:52;10.70;99.90
44705;DHT22;30431;48.520;9.046;2024-03-02T10:42:22;10.90;99.90
44705;DHT22;30431;48.520;9.046;2024-03-02T10:44:49;11.00;99.90
44705;DHT22;30431;48.520;9.046;2024-03-02T10:47:22;11.10;99.50
44705;DHT22;30431;48.520;9.046;2024-03-02T10:49:52;11.30;99.30
44705;DHT22;30431;48.520;9.046;2024-03-02T10:52:20;11.40;98.60
44705;DHT22;30431;48.520;9.046;2024-03-02T10:54:50;11.60;98.60
44705;DHT22;30431;48.520;9.046;2024-03-02T10:57:24;11.70;98.70
44705;DHT22;30431;48.520;9.046;2024-03-02T11:00:02;11.80;98.80
44705;DHT22;30431;48.520;9.046;2024-03-02T11:02:31;11.90;98.00
44705;DHT22;30431;48.520;9.046;2024-03-02T11:05:05;12.00;97.50
44705;DHT22;30431;48.520;9.046;2024-03-02T11:07:37;12.10;97.80
44705;DHT22;30431;48.520;9.046;2024-03-02T11:10:05;12.20;97.50
44705;DHT22;30431;48.520;9.046;2024-03-02T11:12:36;12.40;97.60
44705;DHT22;30431;48.520;9.046;2024-03-02T11:15:10;12.50;96.70
44705;DHT22;30431;48.520;9.046;2024-03-02T11:17:41;12.60;96.00
44705;DHT22;30431;48.520;9.046;2024-03-02T11:20:13;12.70;96.30
44705;DHT22;30431;48.520;9.046;2024-03-02T11:22:41;12.80;95.00
44705;DHT22;30431;48.520;9.046;2024-03-02T11:25:26;12.90;94.90
44705;DHT22;30431;48.520;9.046;2024-03-02T11:33:06;13.00;92.50
44705;DHT22;30431;48.520;9.046;2024-03-02T11:35:42;13.10;92.70
44705;DHT22;30431;48.520;9.046;2024-03-02T11:38:20;13.20;92.60
44705;DHT22;30431;48.520;9.046;2024-03-02T11:40:49;13.30;92.30
44705;DHT22;30431;48.520;9.046;2024-03-02T11:43:16;13.40;92.70
44705;DHT22;30431;48.520;9.046;2024-03-02T11:45:43;13.60;92.80
44705;DHT22;30431;48.520;9.046;2024-03-02T11:48:16;13.80;91.30
44705;DHT22;30431;48.520;9.046;2024-03-02T11:50:49;13.80;90.40
44705;DHT22;30431;48.520;9.046;2024-03-02T11:53:22;14.00;91.10
44705;DHT22;30431;48.520;9.046;2024-03-02T11:55:52;14.00;90.40
44705;DHT22;30431;48.520;9.046;2024-03-02T11:58:21;14.00;90.10
44705;DHT22;30431;48.520;9.046;2024-03-02T12:00:51;14.20;90.90
44705;DHT22;30431;48.520;9.046;2024-03-02T12:03:21;14.30;90.00
44705;DHT22;30431;48.520;9.046;2024-03-02T12:05:53;14.30;86.70
44705;DHT22;30431;48.520;9.046;2024-03-02T12:08:23;14.30;86.20
44705;DHT22;30431;48.520;9.046;2024-03-02T12:10:58;14.30;85.70
44705;DHT22;30431;48.520;9.046;2024-03-02T12:13:30;14.30;86.30
44705;DHT22;30431;48.520;9.046;2024-03-02T12:15:58;14.40;86.30
44705;DHT22;30431;48.520;9.046;2024-03-02T12:18:30;14.50;83.10
44705;DHT22;30431;48.520;9.046;2024-03-02T12:20:57;14.40;81.80
44705;DHT22;30431;48.520;9.046;2024-03-02T12:23:25;14.30;81.20
44705;DHT22;30431;48.520;9.046;2024-03-02T12:25:55;14.10;82.00
44705;DHT22;30431;48.520;9.046;2024-03-02T12:28:25;14.10;81.70
44705;DHT22;30431;48.520;9.046;2024-03-02T12:30:57;14.00;81.20
44705;DHT22;30431;48.520;9.046;2024-03-02T12:33:24;14.00;82.00
44705;DHT22;30431;48.520;9.046;2024-03-02T12:35:54;14.30;81.20
44705;DHT22;30431;48.520;9.046;2024-03-02T12:38:25;14.30;81.70
44705;DHT22;30431;48.520;9.046;2024-03-02T12:40:53;14.40;82.40
44705;DHT22;30431;48.520;9.046;2024-03-02T12:43:22;14.60;81.10
44705;DHT22;30431;48.520;9.046;2024-03-02T12:45:54;14.70;79.40
44705;DHT22;30431;48.520;9.046;2024-03-02T12:48:23;14.70;79.80
44705;DHT22;30431;48.520;9.046;2024-03-02T12:50:52;14.70;79.00
44705;DHT22;30431;48.520;9.046;2024-03-02T12:53:21;14.70;79.80
44705;DHT22;30431;48.520;9.046;2024-03-02T12:55:48;14.70;79.60
44705;DHT22;30431;48.520;9.046;2024-03-02T12:58:22;14.90;78.80
44705;DHT22;30431;48.520;9.046;2024-03-02T13:00:49;14.90;78.40
44705;DHT22;30431;48.520;9.046;2024-03-02T13:03:17;15.00;78.70
44705;DHT22;30431;48.520;9.046;2024-03-02T13:05:49;15.10;78.50
44705;DHT22;30431;48.520;9.046;2024-03-02T13:08:20;15.00;77.70
44705;DHT22;30431;48.520;9.046;2024-03-02T13:10:47;15.00;79.10
44705;DHT22;30431;48.520;9.046;2024-03-02T13:13:14;15.10;77.60
44705;DHT22;30431;48.520;9.046;2024-03-02T13:15:41;15.10;78.10
44705;DHT22;30431;48.520;9.046;2024-03-02T13:18:13;15.10;78.40
44705;DHT22;30431;48.520;9.046;2024-03-02T13:20:41;15.20;77.80
44705;DHT22;30431;48.520;9.046;2024-03-02T13:23:08;15.10;78.70
44705;DHT22;30431;48.520;9.046;2024-03-02T13:25:35;15.10;76.90
44705;DHT22;30431;48.520;9.046;2024-03-02T13:28:07;15.10;77.60
44705;DHT22;30431;48.520;9.046;2024-03-02T13:30:35;15.10;77.30
44705;DHT22;30431;48.520;9.046;2024-03-02T13:33:05;15.10;77.30
44705;DHT22;30431;48.520;9.046;2024-03-02T13:35:32;15.00;77.60
44705;DHT22;30431;48.520;9.046;2024-03-02T13:37:59;15.00;77.70
44705;DHT22;30431;48.520;9.046;2024-03-02T13:40:28;15.10;78.30
44705;DHT22;30431;48.520;9.046;2024-03-02T13:42:57;15.20;77.70
44705;DHT22;30431;48.520;9.046;2024-03-02T13:45:24;15.20;77.30
44705;DHT22;30431;48.520;9.046;2024-03-02T13:47:51;15.10;77.80
44705;DHT22;30431;48.520;9.046;2024-03-02T13:50:24;15.10;77.70
44705;DHT22;30431;48.520;9.046;2024-03-02T13:52:52;15.10;78.00
44705;DHT22;30431;48.520;9.046;2024-03-02T13:55:18;15.00;78.00
44705;DHT22;30431;48.520;9.046;2024-03-02T13:57:48;15.00;76.60
44705;DHT22;30431;48.520;9.046;2024-03-02T14:00:17;15.00;77.50
44705;DHT22;30431;48.520;9.046;2024-03-02T14:02:48;15.00;77.40
44705;DHT22;30431;48.520;9.046;2024-03-02T14:05:18;15.10;77.10
44705;DHT22;30431;48.520;9.046;2024-03-02T14:07:46;15.20;77.00
44705;DHT22;30431;48.520;9.046;2024-03-02T14:10:13;15.20;76.90
44705;DHT22;30431;48.520;9.046;2024-03-02T14:12:44;15.30;76.00
44705;DHT22;30431;48.520;9.046;2024-03-02T14:15:11;15.40;76.00
44705;DHT22;30431;48.520;9.046;2024-03-02T14:17:38;15.40;75.80
44705;DHT22;30431;48.520;9.046;2024-03-02T14:20:06;15.50;76.40
44705;DHT22;30431;48.520;9.046;2024-03-02T14:22:33;15.50;76.10
44705;DHT22;30431;48.520;9.046;2024-03-02T14:25:00;15.40;76.20
44705;DHT22;30431;48.520;9.046;2024-03-02T14:27:27;15.40;75.50
44705;DHT22;30431;48.520;9.046;2024-03-02T14:30:19;15.40;75.80
44705;DHT22;30431;48.520;9.046;2024-03-02T14:32:46;15.40;74.80
44705;DHT22;30431;48.520;9.046;2024-03-02T14:35:13;15.40;75.20
44705;DHT22;30431;48.520;9.046;2024-03-02T14:37:40;15.30;75.80
44705;DHT22;30431;48.520;9.046;2024-03-02T14:40:08;15.40;74.50
44705;DHT22;30431;48.520;9.046;2024-03-02T14:42:37;15.40;73.80
44705;DHT22;30431;48.520;9.046;2024-03-02T14:45:07;15.50;72.90
44705;DHT22;30431;48.520;9.046;2024-03-02T14:47:36;15.40;73.10
44705;DHT22;30431;48.520;9.046;2024-03-02T14:50:03;15.40;72.80
44705;DHT22;30431;48.520;9.046;2024-03-02T14:52:35;15.40;71.60
44705;DHT22;30431;48.520;9.046;2024-03-02T14:55:02;15.30;71.60
44705;DHT22;30431;48.520;9.046;2024-03-02T14:57:31;15.30;72.30
44705;DHT22;30431;48.520;9.046;2024-03-02T14:59:58;15.20;70.70
44705;DHT22;30431;48.520;9.046;2024-03-02T15:02:25;15.00;71.00
44705;DHT22;30431;48.520;9.046;2024-03-02T15:04:53;14.90;71.20
44705;DHT22;30431;48.520;9.046;2024-03-02T15:07:21;14.70;72.70
44705;DHT22;30431;48.520;9.046;2024-03-02T15:09:48;14.70;73.00
44705;DHT22;30431;48.520;9.046;2024-03-02T15:12:15;14.50;74.30
44705;DHT22;30431;48.520;9.046;2024-03-02T15:14:43;14.30;75.00
44705;DHT22;30431;48.520;9.046;2024-03-02T15:17:14;14.30;75.30
44705;DHT22;30431;48.520;9.046;2024-03-02T15:19:45;14.20;74.70
44705;DHT22;30431;48.520;9.046;2024-03-02T15:22:12;14.30;73.90
44705;DHT22;30431;48.520;9.046;2024-03-02T15:24:40;14.30;75.00
44705;DHT22;30431;48.520;9.046;2024-03-02T15:27:07;14.30;74.60
44705;DHT22;30431;48.520;9.046;2024-03-02T15:29:38;14.20;74.80
44705;DHT22;30431;48.520;9.046;2024-03-02T15:32:06;14.20;74.80
44705;DHT22;30431;48.520;9.046;2024-03-02T15:34:36;14.20;74.70
44705;DHT22;30431;48.520;9.046;2024-03-02T15:37:03;14.20;73.60
44705;DHT22;30431;48.520;9.046;2024-03-02T15:39:33;14.20;74.70
44705;DHT22;30431;48.520;9.046;2024-03-02T15:42:00;14.20;73.80
44705;DHT22;30431;48.520;9.046;2024-03-02T15:44:31;14.20;73.20
44705;DHT22;30431;48.520;9.046;2024-03-02T15:46:59;14.30;71.10
44705;DHT22;30431;48.520;9.046;2024-03-02T15:49:28;14.40;70.60
44705;DHT22;30431;48.520;9.046;2024-03-02T15:51:56;14.30;71.50
44705;DHT22;30431;48.520;9.046;2024-03-02T15:54:23;14.20;71.30
44705;DHT22;30431;48.520;9.046;2024-03-02T15:56:50;14.20;71.00
44705;DHT22;30431;48.520;9.046;2024-03-02T15:59:17;14.10;71.70